Time;durP1;ratioP1;P1;durP2;ratioP2;P2;SDS_P1;SDS_P2;PMS_P1;PMS_P2;Temp;Humidity;BMP_temperature;BMP_pressure;BME280_temperature;BME280_humidity;BME280_pressure;Samples;Min_cycle;Max_cycle;Signal;HPM_P1;HPM_P2
2022/03/06 00:02:09;;;;;;;69.67;25.50;;;0.30;99.90;;;;;;5035433;28;20676;-84
2022/03/06 00:04:35;;;;;;;78.63;27.93;;;0.30;99.90;;;;;;5016917;28;20185;-83
2022/03/06 00:07:01;;;;;;;54.73;22.40;;;0.30;99.90;;;;;;5017700;28;20667;-83
2022/03/06 00:09:26;;;;;;;48.93;19.27;;;2.20;99.90;;;;;;5017614;28;20621;-83
2022/03/06 00:11:53;;;;;;;51.07;20.10;;;1.00;99.90;;;;;;5035382;28;20668;-83
2022/03/06 00:14:19;;;;;;;49.77;19.23;;;0.20;99.90;;;;;;5035392;28;20180;-84
2022/03/06 00:16:45;;;;;;;60.27;21.50;;;1.30;99.90;;;;;;5035305;28;20695;-83
2022/03/06 00:19:11;;;;;;;70.43;27.30;;;0.90;99.90;;;;;;5035041;28;20184;-84
2022/03/06 00:21:37;;;;;;;65.57;23.50;;;0.40;99.90;;;;;;5017283;28;20669;-83
2022/03/06 00:24:03;;;;;;;49.70;21.13;;;0.70;99.90;;;;;;5017475;28;20226;-83
2022/03/06 00:26:29;;;;;;;50.80;21.97;;;0.30;99.90;;;;;;5017263;28;20688;-83
2022/03/06 00:28:55;;;;;;;12.40;7.13;;;2.50;99.90;;;;;;5017259;28;20223;-84
2022/03/06 00:31:23;;;;;;;16.53;9.53;;;0.20;93.00;;;;;;5016946;28;20622;-84
2022/03/06 00:33:49;;;;;;;9.90;6.57;;;0.30;91.40;;;;;;5017217;28;20599;-84
2022/03/06 00:36:15;;;;;;;29.97;17.47;;;1.60;90.50;;;;;;5017140;28;20621;-83
2022/03/06 00:38:41;;;;;;;29.53;14.63;;;3.00;93.80;;;;;;5035068;28;20181;-83
2022/03/06 00:41:07;;;;;;;21.90;12.83;;;1.40;93.10;;;;;;5034825;28;20266;-83
2022/03/06 00:43:33;;;;;;;32.83;14.00;;;1.10;96.20;;;;;;5034941;28;20190;-83
2022/03/06 00:45:58;;;;;;;32.30;14.13;;;2.20;99.00;;;;;;5017280;28;20185;-83
2022/03/06 00:48:24;;;;;;;43.77;17.50;;;0.50;99.90;;;;;;5034495;28;20638;-83
2022/03/06 00:50:50;;;;;;;44.77;17.60;;;0.40;99.90;;;;;;5017063;28;20184;-83
2022/03/06 00:53:15;;;;;;;40.50;16.80;;;2.20;99.90;;;;;;5016703;28;20220;-83
2022/03/06 00:55:41;;;;;;;34.00;14.80;;;2.40;99.90;;;;;;5034539;28;20227;-84
2022/03/06 00:58:09;;;;;;;27.33;12.80;;;1.70;99.90;;;;;;5000568;28;20521;-84
2022/03/06 01:00:36;;;;;;;35.53;15.93;;;0.50;99.90;;;;;;5034420;28;20199;-84
2022/03/06 01:03:04;;;;;;;80.47;27.20;;;1.20;99.90;;;;;;5016686;28;20192;-84
2022/03/06 01:05:30;;;;;;;72.33;24.63;;;1.50;99.90;;;;;;5034486;28;20184;-84
2022/03/06 01:07:55;;;;;;;63.37;24.17;;;0.30;99.90;;;;;;5016772;28;20549;-84
2022/03/06 01:10:21;;;;;;;174.20;57.43;;;0.30;99.90;;;;;;5016522;28;20188;-83
2022/03/06 01:12:47;;;;;;;195.10;70.17;;;0.30;99.90;;;;;;5034358;28;20581;-84
2022/03/06 01:15:13;;;;;;;120.17;42.30;;;1.40;99.90;;;;;;5034069;28;20623;-85
2022/03/06 01:17:38;;;;;;;45.83;18.17;;;1.20;99.90;;;;;;5034219;28;20523;-84
2022/03/06 01:20:05;;;;;;;32.97;14.23;;;1.70;99.90;;;;;;5016573;28;20549;-83
2022/03/06 01:22:31;;;;;;;20.87;10.93;;;0.30;99.90;;;;;;5034306;28;20189;-84
2022/03/06 01:24:56;;;;;;;20.40;10.33;;;1.50;99.90;;;;;;5000089;28;20183;-84
2022/03/06 01:27:22;;;;;;;16.90;8.73;;;0.90;99.90;;;;;;5016314;28;20219;-84
2022/03/06 01:29:47;;;;;;;16.83;7.73;;;0.20;98.50;;;;;;5016574;28;20207;-84
2022/03/06 01:32:13;;;;;;;13.43;7.20;;;2.10;97.30;;;;;;5016155;28;20193;-84
2022/03/06 01:34:39;;;;;;;10.80;6.17;;;0.80;96.40;;;;;;5034361;28;20184;-84
2022/03/06 01:37:05;;;;;;;13.63;6.00;;;0.20;94.80;;;;;;5016301;28;20184;-84
2022/03/06 01:39:31;;;;;;;11.33;6.83;;;0.30;93.90;;;;;;5016266;28;20227;-84
2022/03/06 01:41:57;;;;;;;15.57;6.83;;;1.50;94.20;;;;;;5033479;28;20204;-83
2022/03/06 01:44:22;;;;;;;11.87;6.40;;;0.30;93.00;;;;;;5033807;28;20187;-84
2022/03/06 01:46:48;;;;;;;14.33;7.20;;;0.80;97.10;;;;;;5016445;28;20184;-84
2022/03/06 01:49:15;;;;;;;19.00;8.00;;;0.70;98.10;;;;;;5016036;28;20187;-84
2022/03/06 01:51:42;;;;;;;16.80;8.13;;;0.30;98.80;;;;;;5033774;28;20267;-84
2022/03/06 01:54:08;;;;;;;15.57;8.30;;;1.70;99.40;;;;;;5033348;28;20224;-83
2022/03/06 01:56:34;;;;;;;18.17;9.30;;;0.30;99.70;;;;;;5033586;28;20551;-84
2022/03/06 01:59:02;;;;;;;25.60;11.17;;;1.20;99.90;;;;;;5033789;28;20182;-83
2022/03/06 02:01:29;;;;;;;20.47;10.27;;;0.60;99.90;;;;;;5015869;28;20213;-84
2022/03/06 02:03:54;;;;;;;26.90;11.70;;;1.40;99.90;;;;;;5016513;28;20197;-83
2022/03/06 02:06:23;;;;;;;25.43;12.13;;;0.50;99.90;;;;;;4999626;28;20196;-83
2022/03/06 02:08:49;;;;;;;32.93;13.10;;;0.30;99.90;;;;;;5015870;28;20195;-83
2022/03/06 02:11:16;;;;;;;32.57;14.03;;;1.20;99.90;;;;;;5033596;28;20180;-83
2022/03/06 02:13:43;;;;;;;41.77;15.10;;;1.90;99.90;;;;;;5033378;28;20176;-83
2022/03/06 02:16:10;;;;;;;30.73;14.33;;;2.00;99.90;;;;;;5033438;28;20176;-84
2022/03/06 02:18:35;;;;;;;31.20;14.20;;;0.30;99.90;;;;;;5033066;28;20173;-84
2022/03/06 02:21:10;;;;;;;27.53;12.30;;;1.20;99.90;;;;;;5033501;28;20751;-83
2022/03/06 02:23:36;;;;;;;22.63;9.23;;;1.30;99.90;;;;;;5033002;28;20265;-83
2022/03/06 02:26:02;;;;;;;16.73;8.80;;;1.10;99.90;;;;;;5033352;28;20254;-83
2022/03/06 02:28:28;;;;;;;17.30;8.60;;;0.20;99.90;;;;;;5018844;28;20204;-84
2022/03/06 02:30:55;;;;;;;33.90;14.60;;;1.20;99.90;;;;;;5019452;28;20223;-83
2022/03/06 02:33:22;;;;;;;49.53;18.93;;;-1.40;99.90;;;;;;5019459;28;20633;-88
2022/03/06 02:35:48;;;;;;;63.80;21.50;;;0.20;99.90;;;;;;5037260;28;20176;-83
2022/03/06 02:38:13;;;;;;;62.33;22.17;;;2.10;99.90;;;;;;5019744;28;20634;-83
2022/03/06 02:40:42;;;;;;;57.53;19.33;;;0.80;99.90;;;;;;5019387;28;20208;-83
2022/03/06 02:43:09;;;;;;;60.20;19.73;;;0.20;99.90;;;;;;5037100;28;20185;-83
2022/03/06 02:45:37;;;;;;;68.47;25.00;;;2.10;99.90;;;;;;5019276;28;20180;-83
2022/03/06 02:48:03;;;;;;;65.60;24.57;;;0.30;99.90;;;;;;5019466;28;20180;-83
2022/03/06 02:50:31;;;;;;;66.27;24.00;;;0.20;99.90;;;;;;5019381;28;20184;-82
2022/03/06 02:52:58;;;;;;;43.07;18.30;;;1.50;99.90;;;;;;5019455;28;20545;-82
2022/03/06 02:55:24;;;;;;;40.43;16.17;;;0.60;99.90;;;;;;5037281;28;20259;-86
2022/03/06 02:57:51;;;;;;;37.23;16.13;;;0.10;99.90;;;;;;5019450;28;20191;-84
2022/03/06 03:00:18;;;;;;;25.53;12.57;;;1.80;99.90;;;;;;5019234;28;20603;-83
2022/03/06 03:02:45;;;;;;;28.30;12.43;;;0.00;99.90;;;;;;5019425;28;20191;-83
2022/03/06 03:05:12;;;;;;;25.37;12.20;;;0.00;99.90;;;;;;5037105;28;20174;-83
2022/03/06 03:07:43;;;;;;;29.37;12.77;;;0.20;99.90;;;;;;5036483;28;20176;-83
2022/03/06 03:10:11;;;;;;;31.07;12.40;;;0.00;99.90;;;;;;5019216;28;20187;-83
2022/03/06 03:12:37;;;;;;;29.13;13.20;;;0.60;99.90;;;;;;5002779;28;20201;-83
2022/03/06 03:15:07;;;;;;;29.27;12.20;;;0.00;99.90;;;;;;5002611;28;20185;-83
2022/03/06 03:17:33;;;;;;;32.07;12.87;;;0.10;99.90;;;;;;5002338;28;20188;-84
2022/03/06 03:19:59;;;;;;;26.67;12.17;;;0.10;99.90;;;;;;5036298;28;20188;-83
2022/03/06 03:22:25;;;;;;;23.60;12.47;;;0.10;99.90;;;;;;5019430;28;20222;-83
2022/03/06 03:24:51;;;;;;;30.73;14.57;;;0.90;99.90;;;;;;5019522;28;20223;-83
2022/03/06 03:27:16;;;;;;;29.90;14.20;;;2.10;99.90;;;;;;5018808;28;20209;-83
2022/03/06 03:29:42;;;;;;;33.50;14.07;;;0.10;99.90;;;;;;5036411;28;20186;-83
2022/03/06 03:32:08;;;;;;;34.30;14.40;;;0.90;99.90;;;;;;5036578;28;20194;-83
2022/03/06 03:34:34;;;;;;;27.37;12.87;;;0.10;99.90;;;;;;5018429;28;20199;-83
2022/03/06 03:37:00;;;;;;;30.03;13.73;;;0.30;99.90;;;;;;5019039;28;20633;-82
2022/03/06 03:39:26;;;;;;;30.77;13.37;;;2.00;99.90;;;;;;5019123;28;20195;-83
2022/03/06 03:41:51;;;;;;;27.43;13.47;;;0.10;99.90;;;;;;5019024;28;20202;-84
2022/03/06 03:44:17;;;;;;;28.43;13.60;;;1.00;99.90;;;;;;5018553;28;20788;-83
2022/03/06 03:46:45;;;;;;;29.77;14.13;;;0.10;99.90;;;;;;5018470;28;20582;-84
2022/03/06 03:49:11;;;;;;;36.33;17.53;;;;;;;;;;5018524;28;20183;-84
2022/03/06 03:51:38;;;;;;;30.83;14.67;;;0.00;99.90;;;;;;5017830;28;20189;-84
2022/03/06 03:54:03;;;;;;;26.57;13.37;;;1.50;99.90;;;;;;5035783;28;20244;-84
2022/03/06 03:56:29;;;;;;;23.13;11.50;;;0.00;99.90;;;;;;5035453;28;20519;-84
2022/03/06 03:58:55;;;;;;;29.03;13.47;;;0.50;99.90;;;;;;5018058;28;20660;-84
2022/03/06 04:01:20;;;;;;;27.60;13.27;;;0.80;99.90;;;;;;5018031;28;20563;-85
2022/03/06 04:03:46;;;;;;;33.17;15.23;;;-0.10;99.90;;;;;;5017734;28;20648;-84
2022/03/06 04:06:12;;;;;;;31.13;15.17;;;1.10;99.90;;;;;;5017677;28;20211;-84
2022/03/06 04:08:37;;;;;;;40.80;16.10;;;0.20;99.90;;;;;;5035253;28;20258;-85
2022/03/06 04:11:04;;;;;;;30.00;14.00;;;-0.10;99.90;;;;;;5001385;28;20232;-84
2022/03/06 04:13:30;;;;;;;27.43;14.23;;;0.00;99.90;;;;;;5017203;28;20270;-84
2022/03/06 04:15:56;;;;;;;31.00;15.40;;;-0.10;99.90;;;;;;5001176;28;20278;-84
2022/03/06 04:18:21;;;;;;;33.13;16.67;;;-0.10;99.90;;;;;;5035044;28;20194;-84
2022/03/06 04:20:47;;;;;;;34.53;16.80;;;-0.10;99.90;;;;;;5017258;28;20687;-84
2022/03/06 04:23:13;;;;;;;20.53;10.17;;;0.40;99.90;;;;;;5036628;28;20192;-84
2022/03/06 04:25:40;;;;;;;12.80;7.60;;;-0.10;99.90;;;;;;5017515;28;20181;-85
2022/03/06 04:28:06;;;;;;;12.03;7.37;;;0.30;99.90;;;;;;5018097;28;20177;-84
2022/03/06 04:30:32;;;;;;;11.90;6.67;;;-0.10;99.90;;;;;;5001519;28;20188;-84
2022/03/06 04:32:58;;;;;;;13.30;6.63;;;0.80;99.10;;;;;;5001382;28;20625;-84
2022/03/06 04:35:23;;;;;;;12.73;7.10;;;0.10;99.90;;;;;;5035095;28;20222;-84
2022/03/06 04:37:49;;;;;;;11.23;6.60;;;0.00;99.90;;;;;;5035182;28;20656;-85
2022/03/06 04:40:15;;;;;;;9.87;6.17;;;0.80;99.10;;;;;;5018057;28;20180;-84
2022/03/06 04:42:41;;;;;;;10.47;7.10;;;0.00;94.90;;;;;;5034822;28;20186;-85
2022/03/06 04:45:07;;;;;;;11.83;7.03;;;0.00;97.40;;;;;;5001066;28;20641;-84
2022/03/06 04:47:34;;;;;;;12.67;7.07;;;0.00;99.90;;;;;;5017583;28;20706;-83
2022/03/06 04:49:59;;;;;;;11.80;7.37;;;1.40;99.90;;;;;;5034951;28;20181;-83
2022/03/06 04:52:25;;;;;;;11.80;6.67;;;0.30;99.90;;;;;;5017603;28;20322;-84
2022/03/06 04:54:51;;;;;;;8.87;6.53;;;1.80;99.90;;;;;;5017210;28;20250;-84
2022/03/06 04:57:16;;;;;;;9.03;5.97;;;1.40;97.10;;;;;;5017356;28;20679;-84
2022/03/06 04:59:42;;;;;;;9.97;6.47;;;1.20;95.10;;;;;;5034730;28;20639;-84
2022/03/06 05:02:08;;;;;;;8.97;6.20;;;0.30;95.80;;;;;;5000242;28;20205;-84
2022/03/06 05:04:34;;;;;;;12.67;7.20;;;1.30;96.10;;;;;;5000421;28;20232;-84
2022/03/06 05:06:59;;;;;;;12.40;7.43;;;0.60;94.80;;;;;;5016619;28;20181;-84
2022/03/06 05:09:25;;;;;;;10.20;7.10;;;0.80;93.50;;;;;;5016589;28;20318;-84
2022/03/06 05:11:51;;;;;;;12.27;7.37;;;1.10;93.60;;;;;;5034143;28;20183;-84
2022/03/06 05:14:17;;;;;;;25.67;11.67;;;0.00;93.10;;;;;;5016534;28;20176;-84
2022/03/06 05:16:43;;;;;;;20.80;11.90;;;0.50;95.80;;;;;;5000091;28;20230;-85
2022/03/06 05:19:09;;;;;;;28.17;15.93;;;0.10;96.90;;;;;;5016266;28;20173;-84
2022/03/06 05:21:35;;;;;;;39.67;17.93;;;0.50;98.80;;;;;;5016376;28;20620;-83
2022/03/06 05:24:01;;;;;;;24.53;13.03;;;;;;;;;;5016273;28;20195;-83
2022/03/06 05:26:27;;;;;;;15.50;6.77;;;0.00;97.20;;;;;;5016491;28;20179;-83
2022/03/06 05:28:52;;;;;;;14.27;7.37;;;0.40;94.20;;;;;;5016061;28;20231;-83
2022/03/06 05:31:19;;;;;;;16.87;8.43;;;;;;;;;;4999883;28;20275;-83
2022/03/06 05:33:44;;;;;;;17.13;7.93;;;0.00;93.60;;;;;;5016132;28;20193;-85
2022/03/06 05:36:10;;;;;;;11.20;6.57;;;1.50;95.40;;;;;;5034060;28;20198;-84
2022/03/06 05:38:36;;;;;;;11.63;6.30;;;0.30;94.70;;;;;;5016472;28;20537;-84
2022/03/06 05:41:01;;;;;;;10.10;6.07;;;0.70;93.50;;;;;;5033641;28;20557;-84
2022/03/06 05:43:27;;;;;;;11.97;7.10;;;0.60;93.00;;;;;;5034096;28;20250;-84
2022/03/06 05:45:53;;;;;;;10.80;6.47;;;0.00;94.30;;;;;;5016022;28;20274;-83
2022/03/06 05:48:22;;;;;;;26.80;12.80;;;0.90;92.20;;;;;;5016272;28;20625;-83
2022/03/06 05:50:48;;;;;;;25.43;11.17;;;0.00;92.60;;;;;;5000044;28;20191;-83
2022/03/06 05:53:14;;;;;;;22.00;11.17;;;0.00;93.80;;;;;;4999222;28;20236;-83
2022/03/06 05:55:40;;;;;;;15.77;9.13;;;0.00;92.40;;;;;;5033323;28;20704;-83
2022/03/06 05:58:05;;;;;;;17.70;8.03;;;0.20;93.60;;;;;;5033068;28;20192;-84
2022/03/06 06:00:31;;;;;;;14.33;8.53;;;0.00;92.30;;;;;;5034083;28;20230;-84
2022/03/06 06:02:57;;;;;;;13.70;7.93;;;1.80;94.70;;;;;;5033960;28;20245;-84
2022/03/06 06:05:23;;;;;;;14.43;7.63;;;0.00;92.30;;;;;;5017409;28;20187;-83
2022/03/06 06:07:49;;;;;;;16.50;9.23;;;0.20;92.70;;;;;;5034687;28;20176;-85
2022/03/06 06:10:16;;;;;;;14.90;8.20;;;0.00;93.60;;;;;;5034303;28;20176;-84
2022/03/06 06:12:42;;;;;;;19.57;8.17;;;1.40;94.40;;;;;;5032782;28;20185;-82
2022/03/06 06:15:08;;;;;;;73.57;19.77;;;1.70;93.70;;;;;;5036580;28;20282;-82
2022/03/06 06:17:35;;;;;;;18.73;8.83;;;0.10;93.00;;;;;;5037134;28;20186;-83
2022/03/06 06:20:04;;;;;;;18.47;7.83;;;0.10;92.80;;;;;;5020836;28;20207;-83
2022/03/06 06:22:31;;;;;;;12.60;6.63;;;0.10;89.30;;;;;;5050506;28;20204;-83
2022/03/06 06:24:57;;;;;;;41.93;11.97;;;0.10;89.80;;;;;;5016280;28;20192;-83
2022/03/06 06:27:22;;;;;;;26.07;8.93;;;0.10;91.00;;;;;;5033610;28;20700;-83
2022/03/06 06:29:48;;;;;;;16.93;7.00;;;0.20;89.90;;;;;;5033639;28;20188;-83
2022/03/06 06:32:14;;;;;;;186.87;43.93;;;-0.10;90.20;;;;;;5015564;28;20659;-83
2022/03/06 06:34:40;;;;;;;351.90;88.83;;;2.20;90.20;;;;;;5015706;28;20192;-85
2022/03/06 06:37:05;;;;;;;528.37;133.90;;;0.90;90.00;;;;;;5033103;28;20181;-83
2022/03/06 06:39:32;;;;;;;129.00;33.13;;;0.70;89.30;;;;;;4999698;28;20184;-83
2022/03/06 06:41:59;;;;;;;12.03;5.57;;;1.60;89.00;;;;;;5007285;28;20291;-84
2022/03/06 06:44:25;;;;;;;15.07;5.97;;;0.40;83.50;;;;;;5024681;28;20196;-83
2022/03/06 06:46:51;;;;;;;26.30;10.63;;;0.30;82.20;;;;;;5051738;28;20522;-84
2022/03/06 06:49:16;;;;;;;12.10;6.23;;;2.00;85.40;;;;;;5025806;28;20632;-83
2022/03/06 06:51:42;;;;;;;27.53;9.60;;;0.30;83.20;;;;;;5052670;28;20184;-84
2022/03/06 06:54:08;;;;;;;51.37;15.70;;;1.90;85.30;;;;;;5051853;28;20230;-83
2022/03/06 06:56:34;;;;;;;10.03;5.30;;;0.40;85.80;;;;;;5052466;28;20701;-84
2022/03/06 06:59:00;;;;;;;8.17;5.10;;;0.30;81.40;;;;;;5018585;28;20211;-84
2022/03/06 07:01:25;;;;;;;8.60;4.80;;;0.40;80.60;;;;;;5052702;28;20191;-83
2022/03/06 07:03:51;;;;;;;9.77;4.43;;;0.90;80.60;;;;;;5052393;28;20263;-83
2022/03/06 07:06:17;;;;;;;8.97;4.73;;;0.40;77.80;;;;;;5034840;28;20634;-84
2022/03/06 07:08:43;;;;;;;7.93;4.47;;;0.60;77.50;;;;;;5034921;28;20172;-84
2022/03/06 07:11:08;;;;;;;20.93;8.83;;;0.50;78.60;;;;;;5034813;28;20183;-85
2022/03/06 07:13:34;;;;;;;84.37;25.80;;;0.50;81.40;;;;;;5053919;28;20198;-84
2022/03/06 07:16:00;;;;;;;60.93;21.40;;;0.80;82.10;;;;;;5038275;28;20676;-85
2022/03/06 07:18:26;;;;;;;177.20;51.53;;;0.90;80.40;;;;;;5038254;28;20186;-87
2022/03/06 07:20:52;;;;;;;67.20;21.33;;;0.60;78.50;;;;;;5037892;28;20207;-83
2022/03/06 07:23:18;;;;;;;88.13;25.93;;;0.60;81.30;;;;;;5037841;28;20529;-83
2022/03/06 07:25:44;;;;;;;67.57;23.93;;;2.80;82.00;;;;;;5037923;28;20184;-84
2022/03/06 07:28:10;;;;;;;46.43;19.00;;;1.50;82.20;;;;;;5055640;28;20172;-85
2022/03/06 07:30:35;;;;;;;8.53;4.90;;;2.00;79.30;;;;;;5038033;28;20522;-86
2022/03/06 07:33:01;;;;;;;11.90;5.63;;;1.10;73.80;;;;;;5055412;28;20259;-88
2022/03/06 07:35:28;;;;;;;9.67;5.30;;;1.70;74.40;;;;;;5037502;28;20561;-85
2022/03/06 07:37:53;;;;;;;7.03;4.83;;;1.20;73.00;;;;;;5021153;28;20176;-86
2022/03/06 07:40:21;;;;;;;8.17;5.20;;;1.30;72.50;;;;;;5029461;28;20484;-85
2022/03/06 07:42:48;;;;;;;7.30;5.00;;;0.40;71.00;;;;;;5028330;28;20180;-85
2022/03/06 07:45:15;;;;;;;16.53;8.20;;;1.50;72.70;;;;;;5028239;28;20187;-87
2022/03/06 07:47:41;;;;;;;49.43;20.97;;;1.80;76.00;;;;;;5024767;28;20177;-87
2022/03/06 07:50:09;;;;;;;8.03;5.27;;;2.20;80.80;;;;;;5012294;28;20596;-86
2022/03/06 07:52:36;;;;;;;7.93;5.13;;;0.60;73.20;;;;;;5055609;28;20183;-85
2022/03/06 07:55:02;;;;;;;8.17;4.90;;;2.30;73.10;;;;;;5033801;28;20307;-84
2022/03/06 07:57:28;;;;;;;7.83;4.87;;;2.00;71.70;;;;;;5035277;28;20246;-83
2022/03/06 07:59:53;;;;;;;6.40;4.73;;;0.60;70.60;;;;;;5032199;28;20235;-83
2022/03/06 08:02:19;;;;;;;8.43;4.97;;;1.30;70.70;;;;;;5035146;28;20669;-84
2022/03/06 08:04:45;;;;;;;8.00;5.17;;;0.70;69.90;;;;;;5034139;28;20637;-85
2022/03/06 08:07:11;;;;;;;8.97;5.40;;;2.50;72.40;;;;;;5034125;28;20244;-84
2022/03/06 08:09:36;;;;;;;9.80;6.07;;;2.30;71.80;;;;;;5023869;28;20742;-84
2022/03/06 08:12:03;;;;;;;8.27;5.37;;;0.70;69.10;;;;;;5016807;28;20212;-83
2022/03/06 08:14:29;;;;;;;8.00;5.30;;;0.70;71.10;;;;;;5028296;28;20703;-83
2022/03/06 08:16:55;;;;;;;11.37;5.43;;;0.80;69.30;;;;;;5015427;28;20189;-85
2022/03/06 08:19:21;;;;;;;11.80;5.80;;;0.80;69.60;;;;;;5015200;28;20625;-84
2022/03/06 08:21:48;;;;;;;8.57;5.33;;;0.60;70.50;;;;;;5015078;28;20197;-84
2022/03/06 08:24:14;;;;;;;6.77;4.83;;;2.30;71.10;;;;;;5018006;28;20197;-84
2022/03/06 08:26:40;;;;;;;8.13;5.40;;;0.50;70.30;;;;;;5034564;28;20184;-84
2022/03/06 08:29:06;;;;;;;7.53;5.07;;;0.50;69.50;;;;;;5031900;28;20235;-84
2022/03/06 08:31:32;;;;;;;9.97;5.20;;;0.40;70.20;;;;;;5017159;28;20185;-83
2022/03/06 08:33:57;;;;;;;13.80;5.80;;;0.40;70.60;;;;;;5024529;28;20562;-82
2022/03/06 08:36:23;;;;;;;8.30;5.37;;;1.20;71.10;;;;;;5028727;28;20194;-83
2022/03/06 08:38:49;;;;;;;6.43;4.90;;;2.40;71.30;;;;;;5026290;28;20187;-82
2022/03/06 08:41:15;;;;;;;9.93;5.77;;;0.60;68.60;;;;;;5015965;28;20222;-82
2022/03/06 08:43:41;;;;;;;8.10;5.73;;;0.60;69.40;;;;;;5045543;28;20226;-83
2022/03/06 08:46:07;;;;;;;8.80;5.30;;;0.80;71.50;;;;;;5025882;28;20215;-83
2022/03/06 08:48:32;;;;;;;8.93;6.77;;;0.90;71.50;;;;;;5024086;28;20237;-83
2022/03/06 08:50:58;;;;;;;13.43;7.50;;;2.60;69.80;;;;;;5028595;28;20687;-83
2022/03/06 08:53:24;;;;;;;22.37;10.13;;;1.00;71.50;;;;;;5031210;28;20239;-84
2022/03/06 08:55:50;;;;;;;19.90;9.00;;;1.30;70.70;;;;;;5035184;28;20188;-88
2022/03/06 08:58:16;;;;;;;11.53;6.87;;;1.50;71.60;;;;;;5040735;28;20187;-83
2022/03/06 09:00:42;;;;;;;9.07;6.27;;;1.30;72.30;;;;;;5034532;28;20549;-81
2022/03/06 09:03:09;;;;;;;12.77;6.60;;;1.20;70.70;;;;;;5032999;28;20188;-83
2022/03/06 09:05:40;;;;;;;10.53;5.50;;;1.30;69.40;;;;;;5054965;28;20289;-82
2022/03/06 09:08:07;;;;;;;8.37;5.73;;;1.20;65.80;;;;;;5047712;28;20206;-82
2022/03/06 09:10:34;;;;;;;8.87;5.43;;;1.10;68.00;;;;;;5053386;28;20188;-83
2022/03/06 09:13:00;;;;;;;10.67;5.70;;;1.10;68.80;;;;;;5018652;28;20609;-82
2022/03/06 09:15:27;;;;;;;8.47;5.67;;;1.20;68.20;;;;;;5023911;28;20197;-82
2022/03/06 09:17:53;;;;;;;11.90;6.57;;;2.60;68.90;;;;;;5048735;28;20215;-81
2022/03/06 09:20:18;;;;;;;9.57;7.00;;;1.30;67.50;;;;;;5050049;28;20621;-82
2022/03/06 09:22:46;;;;;;;10.73;6.10;;;2.90;68.00;;;;;;5052432;28;20227;-81
2022/03/06 09:25:11;;;;;;;7.47;4.97;;;1.80;67.40;;;;;;5037008;28;20179;-81
2022/03/06 09:27:38;;;;;;;9.90;6.50;;;1.20;65.20;;;;;;5017804;28;20195;-82
2022/03/06 09:30:05;;;;;;;10.03;6.80;;;2.90;67.80;;;;;;5050393;28;20225;-84
2022/03/06 09:32:30;;;;;;;11.13;7.30;;;1.00;66.60;;;;;;5032785;28;20669;-84
2022/03/06 09:34:56;;;;;;;9.23;6.33;;;1.60;67.10;;;;;;5046242;28;20222;-87
2022/03/06 09:37:22;;;;;;;9.50;5.90;;;1.10;65.40;;;;;;5016772;28;20694;-83
2022/03/06 09:39:48;;;;;;;11.27;6.57;;;1.00;66.10;;;;;;5044139;28;20267;-87
2022/03/06 09:42:18;;;;;;;13.33;6.93;;;1.00;66.80;;;;;;5039829;28;20210;-87
2022/03/06 09:44:48;;;;;;;9.20;5.80;;;1.00;67.50;;;;;;5045327;28;20332;-84
2022/03/06 09:47:14;;;;;;;10.77;6.10;;;1.80;69.30;;;;;;5019827;28;20557;-85
2022/03/06 09:49:43;;;;;;;8.60;5.30;;;1.10;65.20;;;;;;5049704;28;20196;-84
2022/03/06 09:52:09;;;;;;;9.67;5.97;;;1.30;67.00;;;;;;5049897;28;20196;-85
2022/03/06 09:54:35;;;;;;;10.60;5.23;;;;;;;;;;5048306;28;20234;-86
2022/03/06 09:57:01;;;;;;;7.60;5.57;;;1.10;66.40;;;;;;5043914;28;20187;-85
2022/03/06 09:59:27;;;;;;;6.97;5.60;;;1.10;67.60;;;;;;5028949;28;20241;-84
2022/03/06 10:01:53;;;;;;;10.60;5.93;;;1.20;70.50;;;;;;5051184;28;20210;-85
2022/03/06 10:04:29;;;;;;;8.77;5.63;;;1.90;67.90;;;;;;5027850;28;20184;-85
2022/03/06 10:06:59;;;;;;;7.80;4.43;;;2.40;67.70;;;;;;5046985;28;20190;-83
2022/03/06 10:09:25;;;;;;;11.13;6.10;;;1.10;65.70;;;;;;5035532;28;20190;-84
2022/03/06 10:11:53;;;;;;;8.50;4.90;;;1.30;67.50;;;;;;5041130;28;20696;-84
2022/03/06 10:14:41;;;;;;;9.30;5.87;;;1.10;66.90;;;;;;5043322;28;20188;-84
2022/03/06 10:17:20;;;;;;;11.07;5.83;;;1.00;67.50;;;;;;5031713;28;20639;-83
2022/03/06 10:19:50;;;;;;;10.53;5.50;;;1.80;68.20;;;;;;5044001;28;20222;-83
2022/03/06 10:22:16;;;;;;;9.40;5.60;;;2.40;68.80;;;;;;5047629;28;20218;-85
2022/03/06 10:25:19;;;;;;;9.57;6.23;;;1.00;67.20;;;;;;5020181;28;20196;-86
2022/03/06 10:27:53;;;;;;;9.67;6.53;;;1.00;68.40;;;;;;5024021;28;20284;-82
2022/03/06 10:30:27;;;;;;;9.47;6.03;;;1.10;67.70;;;;;;5043493;28;20632;-82
2022/03/06 10:32:54;;;;;;;8.47;5.63;;;1.20;66.00;;;;;;5018501;28;20191;-84
2022/03/06 10:35:25;;;;;;;11.30;6.77;;;1.10;66.20;;;;;;5039757;28;20662;-83
2022/03/06 10:37:52;;;;;;;10.17;6.53;;;2.00;67.00;;;;;;5049383;28;20653;-85
2022/03/06 10:40:32;;;;;;;8.13;5.53;;;1.30;66.40;;;;;;5021578;28;20280;-90
2022/03/06 10:42:57;;;;;;;18.93;9.77;;;1.40;65.80;;;;;;5045966;28;20270;-83
2022/03/06 10:45:24;;;;;;;12.20;6.73;;;2.50;67.80;;;;;;5024859;28;20304;-83
2022/03/06 10:47:49;;;;;;;10.60;6.20;;;1.50;66.00;;;;;;5041763;28;20181;-83
2022/03/06 10:50:21;;;;;;;8.77;6.00;;;1.80;65.20;;;;;;5018895;28;20278;-82
2022/03/06 10:52:47;;;;;;;32.90;15.07;;;1.70;65.20;;;;;;5045308;28;20195;-83
2022/03/06 10:55:30;;;;;;;32.70;17.27;;;2.80;66.90;;;;;;5048568;28;20254;-85
2022/03/06 10:57:57;;;;;;;27.80;15.47;;;2.50;68.40;;;;;;5058774;28;20169;-84
2022/03/06 11:00:23;;;;;;;11.13;6.93;;;1.90;67.00;;;;;;5022231;28;20195;-86
2022/03/06 11:02:50;;;;;;;12.87;6.67;;;1.90;63.80;;;;;;5015856;28;20211;-83
2022/03/06 11:05:16;;;;;;;10.30;6.77;;;1.90;63.90;;;;;;5052933;28;20188;-83
2022/03/06 11:07:42;;;;;;;10.13;6.43;;;2.70;64.10;;;;;;5034063;28;20192;-83
2022/03/06 11:10:08;;;;;;;9.20;6.00;;;1.30;65.20;;;;;;5025709;28;20186;-83
2022/03/06 11:12:36;;;;;;;10.13;7.13;;;1.30;63.90;;;;;;5034070;28;20271;-84
2022/03/06 11:15:02;;;;;;;13.10;7.60;;;1.50;65.40;;;;;;5058506;28;20180;-82
2022/03/06 11:17:27;;;;;;;14.77;7.30;;;1.70;66.10;;;;;;5037748;28;20198;-86
2022/03/06 11:19:53;;;;;;;10.93;6.40;;;1.70;68.30;;;;;;5036566;28;20709;-85
2022/03/06 11:22:48;;;;;;;9.70;6.43;;;2.50;66.40;;;;;;5046003;28;20294;-82
2022/03/06 11:25:21;;;;;;;11.10;6.27;;;1.70;65.00;;;;;;5054271;28;20292;-83
2022/03/06 11:28:05;;;;;;;9.13;6.13;;;2.50;66.30;;;;;;5056145;28;20176;-87
2022/03/06 11:30:31;;;;;;;9.23;6.30;;;1.30;65.50;;;;;;5067286;28;20694;-82
2022/03/06 11:33:02;;;;;;;12.33;6.40;;;2.50;67.30;;;;;;5023567;28;20188;-84
2022/03/06 11:35:32;;;;;;;12.37;6.87;;;1.60;67.10;;;;;;5054954;28;20172;-87
2022/03/06 11:37:59;;;;;;;9.27;5.90;;;1.10;66.60;;;;;;5050880;28;20233;-83
2022/03/06 11:40:54;;;;;;;12.27;7.23;;;2.20;67.50;;;;;;5031799;28;20214;-83
2022/03/06 11:43:32;;;;;;;9.80;6.43;;;1.30;68.10;;;;;;5041452;28;20211;-83
2022/03/06 11:46:06;;;;;;;12.67;6.90;;;1.20;66.80;;;;;;5043443;28;20207;-84
2022/03/06 11:48:35;;;;;;;14.93;8.20;;;1.60;66.50;;;;;;5052647;28;20626;-83
2022/03/06 11:51:12;;;;;;;37.20;15.17;;;1.10;66.70;;;;;;5044976;28;20188;-84
2022/03/06 11:54:08;;;;;;;28.07;12.13;;;1.30;70.00;;;;;;5032025;28;20255;-85
2022/03/06 11:56:39;;;;;;;14.10;7.33;;;1.40;69.00;;;;;;5053142;28;20194;-84
2022/03/06 11:59:19;;;;;;;15.33;7.70;;;1.40;66.90;;;;;;5057898;28;20617;-84
2022/03/06 12:01:47;;;;;;;12.40;7.23;;;1.40;66.70;;;;;;5065843;28;20223;-89
2022/03/06 12:04:18;;;;;;;13.47;6.83;;;3.40;68.30;;;;;;5051494;28;20172;-84
2022/03/06 12:06:56;;;;;;;12.63;7.90;;;1.20;65.80;;;;;;5068934;28;20187;-85
2022/03/06 12:09:30;;;;;;;14.30;8.70;;;1.10;69.80;;;;;;5058457;28;20190;-85
2022/03/06 12:11:59;;;;;;;13.10;7.20;;;1.40;68.00;;;;;;5061041;28;20542;-84
2022/03/06 12:14:31;;;;;;;11.40;7.57;;;1.40;68.20;;;;;;5021807;28;20249;-84
2022/03/06 12:17:03;;;;;;;11.70;7.27;;;1.20;70.00;;;;;;5033610;28;20203;-84
2022/03/06 12:19:43;;;;;;;13.33;7.57;;;1.20;68.30;;;;;;5033492;28;20211;-84
2022/03/06 12:22:12;;;;;;;11.90;7.20;;;1.20;67.70;;;;;;5036398;28;20196;-85
2022/03/06 12:24:39;;;;;;;11.27;7.10;;;1.20;68.60;;;;;;5041171;28;20188;-83
2022/03/06 12:27:39;;;;;;;11.47;7.30;;;1.20;67.90;;;;;;5037890;28;20194;-84
2022/03/06 12:30:06;;;;;;;15.13;7.23;;;1.20;67.80;;;;;;5022619;28;20212;-85
2022/03/06 12:32:37;;;;;;;13.33;6.47;;;1.10;67.90;;;;;;5035064;28;20187;-84
2022/03/06 12:35:16;;;;;;;13.13;7.17;;;1.20;68.40;;;;;;5042951;28;20179;-87
2022/03/06 12:37:51;;;;;;;10.60;6.60;;;1.10;67.30;;;;;;5020025;28;20188;-86
2022/03/06 12:40:18;;;;;;;12.83;6.63;;;;;;;;;;5040904;28;20197;-86
2022/03/06 12:42:45;;;;;;;12.50;7.37;;;;;;;;;;5033760;28;20665;-84
2022/03/06 12:45:12;;;;;;;11.07;7.17;;;;;;;;;;5044507;28;20674;-85
2022/03/06 12:47:41;;;;;;;11.57;7.00;;;1.30;67.40;;;;;;5048989;28;20186;-85